sensor_id;sensor_type;location;lat;lon;timestamp;P1;durP1;ratioP1;P2;durP2;ratioP2
45694;SDS011;31408;45.468;9.124;2023-05-29T00:00:04;9.00;;;4.20;;
45694;SDS011;31408;45.468;9.124;2023-05-29T00:02:35;4.78;;;2.92;;
45694;SDS011;31408;45.468;9.124;2023-05-29T00:05:01;7.18;;;3.90;;
45694;SDS011;31408;45.468;9.124;2023-05-29T00:07:31;12.77;;;3.50;;
45694;SDS011;31408;45.468;9.124;2023-05-29T00:09:57;4.35;;;2.75;;
45694;SDS011;31408;45.468;9.124;2023-05-29T00:12:23;6.78;;;3.30;;
45694;SDS011;31408;45.468;9.124;2023-05-29T00:14:49;7.13;;;3.20;;
45694;SDS011;31408;45.468;9.124;2023-05-29T00:17:15;4.78;;;2.88;;
45694;SDS011;31408;45.468;9.124;2023-05-29T00:19:41;5.03;;;2.90;;
45694;SDS011;31408;45.468;9.124;2023-05-29T00:22:07;5.65;;;2.92;;
45694;SDS011;31408;45.468;9.124;2023-05-29T00:24:33;4.38;;;2.45;;
45694;SDS011;31408;45.468;9.124;2023-05-29T00:26:58;5.05;;;2.63;;
45694;SDS011;31408;45.468;9.124;2023-05-29T00:29:24;5.57;;;2.85;;
45694;SDS011;31408;45.468;9.124;2023-05-29T00:31:50;5.40;;;2.75;;
45694;SDS011;31408;45.468;9.124;2023-05-29T00:34:18;5.80;;;3.42;;
45694;SDS011;31408;45.468;9.124;2023-05-29T00:36:49;4.65;;;2.65;;
45694;SDS011;31408;45.468;9.124;2023-05-29T00:39:15;7.18;;;3.28;;
45694;SDS011;31408;45.468;9.124;2023-05-29T00:41:40;7.57;;;3.15;;
45694;SDS011;31408;45.468;9.124;2023-05-29T00:44:06;2.75;;;2.00;;
45694;SDS011;31408;45.468;9.124;2023-05-29T00:46:32;7.88;;;3.15;;
45694;SDS011;31408;45.468;9.124;2023-05-29T00:48:58;4.97;;;2.50;;
45694;SDS011;31408;45.468;9.124;2023-05-29T00:51:25;6.10;;;3.03;;
45694;SDS011;31408;45.468;9.124;2023-05-29T00:53:51;8.55;;;2.70;;
45694;SDS011;31408;45.468;9.124;2023-05-29T00:56:33;5.70;;;3.05;;
45694;SDS011;31408;45.468;9.124;2023-05-29T00:59:00;4.97;;;2.65;;
45694;SDS011;31408;45.468;9.124;2023-05-29T01:01:26;5.65;;;2.45;;
45694;SDS011;31408;45.468;9.124;2023-05-29T01:03:54;5.68;;;2.55;;
45694;SDS011;31408;45.468;9.124;2023-05-29T01:06:30;5.03;;;2.67;;
45694;SDS011;31408;45.468;9.124;2023-05-29T01:08:56;5.82;;;2.70;;
45694;SDS011;31408;45.468;9.124;2023-05-29T01:11:27;3.35;;;2.03;;
45694;SDS011;31408;45.468;9.124;2023-05-29T01:14:07;4.90;;;2.50;;
45694;SDS011;31408;45.468;9.124;2023-05-29T01:16:35;5.10;;;2.50;;
45694;SDS011;31408;45.468;9.124;2023-05-29T01:19:17;7.78;;;3.92;;
45694;SDS011;31408;45.468;9.124;2023-05-29T01:22:07;4.32;;;2.63;;
45694;SDS011;31408;45.468;9.124;2023-05-29T01:27:04;5.38;;;2.65;;
45694;SDS011;31408;45.468;9.124;2023-05-29T01:29:32;4.63;;;2.42;;
45694;SDS011;31408;45.468;9.124;2023-05-29T01:31:59;5.20;;;2.80;;
45694;SDS011;31408;45.468;9.124;2023-05-29T01:34:27;4.65;;;2.75;;
45694;SDS011;31408;45.468;9.124;2023-05-29T01:36:52;5.70;;;2.92;;
45694;SDS011;31408;45.468;9.124;2023-05-29T01:39:18;4.95;;;2.80;;
45694;SDS011;31408;45.468;9.124;2023-05-29T01:41:44;5.82;;;3.00;;
45694;SDS011;31408;45.468;9.124;2023-05-29T01:44:11;5.20;;;3.10;;
45694;SDS011;31408;45.468;9.124;2023-05-29T01:46:43;5.82;;;3.03;;
45694;SDS011;31408;45.468;9.124;2023-05-29T01:49:10;7.65;;;3.20;;
45694;SDS011;31408;45.468;9.124;2023-05-29T01:51:36;4.97;;;2.75;;
45694;SDS011;31408;45.468;9.124;2023-05-29T01:54:02;9.02;;;4.00;;
45694;SDS011;31408;45.468;9.124;2023-05-29T01:56:29;9.80;;;3.83;;
45694;SDS011;31408;45.468;9.124;2023-05-29T01:58:55;7.55;;;3.85;;
45694;SDS011;31408;45.468;9.124;2023-05-29T02:01:21;6.13;;;3.28;;
45694;SDS011;31408;45.468;9.124;2023-05-29T02:03:47;7.22;;;3.58;;
45694;SDS011;31408;45.468;9.124;2023-05-29T02:06:12;8.10;;;3.80;;
45694;SDS011;31408;45.468;9.124;2023-05-29T02:08:38;9.57;;;3.67;;
45694;SDS011;31408;45.468;9.124;2023-05-29T02:11:03;10.30;;;4.45;;
45694;SDS011;31408;45.468;9.124;2023-05-29T02:13:29;6.07;;;3.78;;
45694;SDS011;31408;45.468;9.124;2023-05-29T02:15:54;8.60;;;3.60;;
45694;SDS011;31408;45.468;9.124;2023-05-29T02:18:22;9.27;;;5.25;;
45694;SDS011;31408;45.468;9.124;2023-05-29T02:20:47;8.02;;;3.35;;
45694;SDS011;31408;45.468;9.124;2023-05-29T02:23:20;8.02;;;3.85;;
45694;SDS011;31408;45.468;9.124;2023-05-29T02:25:46;10.98;;;3.58;;
45694;SDS011;31408;45.468;9.124;2023-05-29T02:28:11;7.97;;;3.88;;
45694;SDS011;31408;45.468;9.124;2023-05-29T02:30:38;7.60;;;3.88;;
45694;SDS011;31408;45.468;9.124;2023-05-29T02:33:04;9.65;;;3.75;;
45694;SDS011;31408;45.468;9.124;2023-05-29T02:35:42;6.93;;;3.60;;
45694;SDS011;31408;45.468;9.124;2023-05-29T02:38:10;8.20;;;4.13;;
45694;SDS011;31408;45.468;9.124;2023-05-29T02:40:36;8.18;;;4.47;;
45694;SDS011;31408;45.468;9.124;2023-05-29T02:43:01;8.43;;;4.45;;
45694;SDS011;31408;45.468;9.124;2023-05-29T02:45:26;10.38;;;4.70;;
45694;SDS011;31408;45.468;9.124;2023-05-29T02:47:53;10.13;;;4.38;;
45694;SDS011;31408;45.468;9.124;2023-05-29T02:50:18;6.25;;;3.22;;
45694;SDS011;31408;45.468;9.124;2023-05-29T02:52:44;8.85;;;4.13;;
45694;SDS011;31408;45.468;9.124;2023-05-29T02:55:09;11.40;;;4.30;;
45694;SDS011;31408;45.468;9.124;2023-05-29T02:57:35;8.75;;;4.35;;
45694;SDS011;31408;45.468;9.124;2023-05-29T03:00:00;8.57;;;3.65;;
45694;SDS011;31408;45.468;9.124;2023-05-29T03:02:31;7.15;;;3.90;;
45694;SDS011;31408;45.468;9.124;2023-05-29T03:04:56;12.45;;;5.30;;
45694;SDS011;31408;45.468;9.124;2023-05-29T03:07:22;7.43;;;4.05;;
45694;SDS011;31408;45.468;9.124;2023-05-29T03:09:47;7.43;;;3.90;;
45694;SDS011;31408;45.468;9.124;2023-05-29T03:12:13;8.05;;;3.88;;
45694;SDS011;31408;45.468;9.124;2023-05-29T03:14:38;10.45;;;4.25;;
45694;SDS011;31408;45.468;9.124;2023-05-29T03:17:08;10.52;;;5.10;;
45694;SDS011;31408;45.468;9.124;2023-05-29T03:19:34;7.95;;;4.50;;
45694;SDS011;31408;45.468;9.124;2023-05-29T03:22:00;8.07;;;4.20;;
45694;SDS011;31408;45.468;9.124;2023-05-29T03:24:25;11.88;;;4.35;;
45694;SDS011;31408;45.468;9.124;2023-05-29T03:26:51;9.15;;;4.38;;
45694;SDS011;31408;45.468;9.124;2023-05-29T03:29:17;9.30;;;4.60;;
45694;SDS011;31408;45.468;9.124;2023-05-29T03:31:44;14.32;;;4.53;;
45694;SDS011;31408;45.468;9.124;2023-05-29T03:34:12;6.60;;;3.47;;
45694;SDS011;31408;45.468;9.124;2023-05-29T03:36:46;8.07;;;4.20;;
45694;SDS011;31408;45.468;9.124;2023-05-29T03:39:11;10.18;;;4.25;;
45694;SDS011;31408;45.468;9.124;2023-05-29T03:41:38;8.93;;;4.03;;
45694;SDS011;31408;45.468;9.124;2023-05-29T03:44:04;7.43;;;3.95;;
45694;SDS011;31408;45.468;9.124;2023-05-29T03:46:35;9.18;;;4.40;;
45694;SDS011;31408;45.468;9.124;2023-05-29T03:49:01;8.38;;;4.03;;
45694;SDS011;31408;45.468;9.124;2023-05-29T03:51:26;8.35;;;3.63;;
45694;SDS011;31408;45.468;9.124;2023-05-29T03:53:54;7.88;;;3.53;;
45694;SDS011;31408;45.468;9.124;2023-05-29T03:56:19;7.97;;;3.88;;
45694;SDS011;31408;45.468;9.124;2023-05-29T03:58:45;8.52;;;4.22;;
45694;SDS011;31408;45.468;9.124;2023-05-29T04:01:12;6.97;;;3.75;;
45694;SDS011;31408;45.468;9.124;2023-05-29T04:03:37;8.02;;;3.70;;
45694;SDS011;31408;45.468;9.124;2023-05-29T04:06:03;9.38;;;3.60;;
45694;SDS011;31408;45.468;9.124;2023-05-29T04:08:29;6.70;;;3.45;;
45694;SDS011;31408;45.468;9.124;2023-05-29T04:10:54;6.70;;;3.42;;
45694;SDS011;31408;45.468;9.124;2023-05-29T04:13:21;5.50;;;3.42;;
45694;SDS011;31408;45.468;9.124;2023-05-29T04:15:46;8.68;;;3.95;;
45694;SDS011;31408;45.468;9.124;2023-05-29T04:18:13;6.18;;;3.50;;
45694;SDS011;31408;45.468;9.124;2023-05-29T04:20:39;8.55;;;3.75;;
45694;SDS011;31408;45.468;9.124;2023-05-29T04:23:05;9.95;;;4.53;;
45694;SDS011;31408;45.468;9.124;2023-05-29T04:25:31;6.97;;;3.70;;
45694;SDS011;31408;45.468;9.124;2023-05-29T04:27:57;8.82;;;4.10;;
45694;SDS011;31408;45.468;9.124;2023-05-29T04:30:22;7.82;;;3.55;;
45694;SDS011;31408;45.468;9.124;2023-05-29T04:32:48;7.85;;;3.10;;
45694;SDS011;31408;45.468;9.124;2023-05-29T04:35:14;8.93;;;4.00;;
45694;SDS011;31408;45.468;9.124;2023-05-29T04:37:48;13.52;;;4.88;;
45694;SDS011;31408;45.468;9.124;2023-05-29T04:40:14;7.88;;;3.78;;
45694;SDS011;31408;45.468;9.124;2023-05-29T04:42:43;9.70;;;4.38;;
45694;SDS011;31408;45.468;9.124;2023-05-29T04:45:12;8.52;;;5.30;;
45694;SDS011;31408;45.468;9.124;2023-05-29T04:47:39;11.45;;;3.83;;
45694;SDS011;31408;45.468;9.124;2023-05-29T04:50:14;9.23;;;4.07;;
45694;SDS011;31408;45.468;9.124;2023-05-29T04:52:42;9.45;;;4.35;;
45694;SDS011;31408;45.468;9.124;2023-05-29T04:55:10;7.28;;;3.88;;
45694;SDS011;31408;45.468;9.124;2023-05-29T04:57:37;8.30;;;4.25;;
45694;SDS011;31408;45.468;9.124;2023-05-29T05:00:05;7.82;;;5.25;;
45694;SDS011;31408;45.468;9.124;2023-05-29T05:02:34;10.45;;;3.75;;
45694;SDS011;31408;45.468;9.124;2023-05-29T05:04:59;13.57;;;4.82;;
45694;SDS011;31408;45.468;9.124;2023-05-29T05:07:25;9.98;;;4.20;;
45694;SDS011;31408;45.468;9.124;2023-05-29T05:09:51;9.07;;;4.38;;
45694;SDS011;31408;45.468;9.124;2023-05-29T05:12:20;10.65;;;4.68;;
45694;SDS011;31408;45.468;9.124;2023-05-29T05:14:49;9.65;;;4.93;;
45694;SDS011;31408;45.468;9.124;2023-05-29T05:17:14;10.00;;;4.53;;
45694;SDS011;31408;45.468;9.124;2023-05-29T05:19:40;13.48;;;4.85;;
45694;SDS011;31408;45.468;9.124;2023-05-29T05:22:06;15.63;;;4.95;;
45694;SDS011;31408;45.468;9.124;2023-05-29T05:24:31;10.60;;;4.60;;
45694;SDS011;31408;45.468;9.124;2023-05-29T05:26:57;11.80;;;4.68;;
45694;SDS011;31408;45.468;9.124;2023-05-29T05:29:22;10.15;;;4.82;;
45694;SDS011;31408;45.468;9.124;2023-05-29T05:31:48;13.93;;;5.53;;
45694;SDS011;31408;45.468;9.124;2023-05-29T05:34:13;12.35;;;5.32;;
45694;SDS011;31408;45.468;9.124;2023-05-29T05:36:41;12.02;;;4.90;;
45694;SDS011;31408;45.468;9.124;2023-05-29T05:39:11;14.57;;;5.28;;
45694;SDS011;31408;45.468;9.124;2023-05-29T05:41:37;16.75;;;5.85;;
45694;SDS011;31408;45.468;9.124;2023-05-29T05:44:03;13.65;;;6.35;;
45694;SDS011;31408;45.468;9.124;2023-05-29T05:49:02;11.50;;;5.28;;
45694;SDS011;31408;45.468;9.124;2023-05-29T05:51:28;11.15;;;5.22;;
45694;SDS011;31408;45.468;9.124;2023-05-29T05:53:54;11.63;;;5.45;;
45694;SDS011;31408;45.468;9.124;2023-05-29T05:56:20;13.98;;;4.60;;
45694;SDS011;31408;45.468;9.124;2023-05-29T05:58:46;15.13;;;5.80;;
45694;SDS011;31408;45.468;9.124;2023-05-29T06:01:11;9.48;;;5.25;;
45694;SDS011;31408;45.468;9.124;2023-05-29T06:03:37;13.98;;;6.22;;
45694;SDS011;31408;45.468;9.124;2023-05-29T06:06:07;14.48;;;6.03;;
45694;SDS011;31408;45.468;9.124;2023-05-29T06:08:34;11.48;;;5.72;;
45694;SDS011;31408;45.468;9.124;2023-05-29T06:11:00;15.32;;;5.78;;
45694;SDS011;31408;45.468;9.124;2023-05-29T06:13:25;10.80;;;5.53;;
45694;SDS011;31408;45.468;9.124;2023-05-29T06:16:01;12.10;;;5.40;;
45694;SDS011;31408;45.468;9.124;2023-05-29T06:18:27;12.82;;;6.40;;
45694;SDS011;31408;45.468;9.124;2023-05-29T06:20:53;20.63;;;6.05;;
45694;SDS011;31408;45.468;9.124;2023-05-29T06:23:19;12.85;;;5.72;;
45694;SDS011;31408;45.468;9.124;2023-05-29T06:29:08;11.00;;;5.43;;
45694;SDS011;31408;45.468;9.124;2023-05-29T06:31:33;13.23;;;6.32;;
45694;SDS011;31408;45.468;9.124;2023-05-29T06:33:59;11.68;;;5.65;;
45694;SDS011;31408;45.468;9.124;2023-05-29T06:36:24;13.10;;;6.18;;
45694;SDS011;31408;45.468;9.124;2023-05-29T06:38:50;11.60;;;5.80;;
45694;SDS011;31408;45.468;9.124;2023-05-29T06:41:16;15.65;;;6.72;;
45694;SDS011;31408;45.468;9.124;2023-05-29T06:43:42;14.88;;;6.28;;
45694;SDS011;31408;45.468;9.124;2023-05-29T06:46:13;10.02;;;5.25;;
45694;SDS011;31408;45.468;9.124;2023-05-29T06:48:38;12.95;;;6.18;;
45694;SDS011;31408;45.468;9.124;2023-05-29T06:51:04;10.98;;;5.97;;
45694;SDS011;31408;45.468;9.124;2023-05-29T06:53:40;16.45;;;6.70;;
45694;SDS011;31408;45.468;9.124;2023-05-29T06:59:04;12.00;;;6.28;;
45694;SDS011;31408;45.468;9.124;2023-05-29T07:01:32;11.48;;;6.22;;
45694;SDS011;31408;45.468;9.124;2023-05-29T07:04:00;11.60;;;5.78;;
45694;SDS011;31408;45.468;9.124;2023-05-29T07:06:26;12.18;;;7.00;;
45694;SDS011;31408;45.468;9.124;2023-05-29T07:08:52;12.32;;;6.10;;
45694;SDS011;31408;45.468;9.124;2023-05-29T07:11:17;12.75;;;6.10;;
45694;SDS011;31408;45.468;9.124;2023-05-29T07:13:42;14.27;;;7.28;;
45694;SDS011;31408;45.468;9.124;2023-05-29T07:16:13;18.30;;;7.15;;
45694;SDS011;31408;45.468;9.124;2023-05-29T07:18:40;14.05;;;6.05;;
45694;SDS011;31408;45.468;9.124;2023-05-29T07:21:06;11.45;;;5.82;;
45694;SDS011;31408;45.468;9.124;2023-05-29T07:23:31;12.27;;;6.15;;
45694;SDS011;31408;45.468;9.124;2023-05-29T07:25:57;11.68;;;5.70;;
45694;SDS011;31408;45.468;9.124;2023-05-29T07:28:25;10.73;;;5.30;;
45694;SDS011;31408;45.468;9.124;2023-05-29T07:30:51;9.52;;;5.13;;
45694;SDS011;31408;45.468;9.124;2023-05-29T07:33:17;15.90;;;5.80;;
45694;SDS011;31408;45.468;9.124;2023-05-29T07:35:48;10.20;;;5.22;;
45694;SDS011;31408;45.468;9.124;2023-05-29T07:38:14;13.00;;;5.30;;
45694;SDS011;31408;45.468;9.124;2023-05-29T07:40:42;11.65;;;6.03;;
45694;SDS011;31408;45.468;9.124;2023-05-29T07:43:17;11.75;;;5.82;;
45694;SDS011;31408;45.468;9.124;2023-05-29T07:46:06;19.83;;;6.22;;
45694;SDS011;31408;45.468;9.124;2023-05-29T07:48:37;11.30;;;5.65;;
45694;SDS011;31408;45.468;9.124;2023-05-29T07:51:07;13.82;;;5.75;;
45694;SDS011;31408;45.468;9.124;2023-05-29T07:53:36;13.60;;;5.50;;
45694;SDS011;31408;45.468;9.124;2023-05-29T07:56:01;14.73;;;6.85;;
45694;SDS011;31408;45.468;9.124;2023-05-29T07:58:28;12.57;;;5.47;;
45694;SDS011;31408;45.468;9.124;2023-05-29T08:00:53;18.27;;;6.50;;
45694;SDS011;31408;45.468;9.124;2023-05-29T08:03:19;11.93;;;6.03;;
45694;SDS011;31408;45.468;9.124;2023-05-29T08:06:03;10.57;;;5.55;;
45694;SDS011;31408;45.468;9.124;2023-05-29T08:08:29;10.57;;;5.00;;
45694;SDS011;31408;45.468;9.124;2023-05-29T08:10:58;16.60;;;6.25;;
45694;SDS011;31408;45.468;9.124;2023-05-29T08:13:23;11.05;;;5.43;;
45694;SDS011;31408;45.468;9.124;2023-05-29T08:15:49;10.15;;;5.15;;
45694;SDS011;31408;45.468;9.124;2023-05-29T08:18:14;11.10;;;4.80;;
45694;SDS011;31408;45.468;9.124;2023-05-29T08:20:40;11.52;;;4.88;;
45694;SDS011;31408;45.468;9.124;2023-05-29T08:23:05;9.38;;;5.43;;
45694;SDS011;31408;45.468;9.124;2023-05-29T08:25:41;8.10;;;4.50;;
45694;SDS011;31408;45.468;9.124;2023-05-29T08:28:07;13.27;;;5.70;;
45694;SDS011;31408;45.468;9.124;2023-05-29T08:30:32;8.90;;;5.38;;
45694;SDS011;31408;45.468;9.124;2023-05-29T08:32:58;14.55;;;5.78;;
45694;SDS011;31408;45.468;9.124;2023-05-29T08:35:23;11.95;;;5.32;;
45694;SDS011;31408;45.468;9.124;2023-05-29T08:37:49;11.45;;;5.35;;
45694;SDS011;31408;45.468;9.124;2023-05-29T08:40:14;11.93;;;6.15;;
45694;SDS011;31408;45.468;9.124;2023-05-29T08:42:43;11.10;;;5.70;;
45694;SDS011;31408;45.468;9.124;2023-05-29T08:45:22;13.00;;;6.22;;
45694;SDS011;31408;45.468;9.124;2023-05-29T08:47:48;12.07;;;6.15;;
45694;SDS011;31408;45.468;9.124;2023-05-29T08:50:17;13.77;;;6.10;;
45694;SDS011;31408;45.468;9.124;2023-05-29T08:52:42;9.95;;;5.50;;
45694;SDS011;31408;45.468;9.124;2023-05-29T08:55:13;9.52;;;4.97;;
45694;SDS011;31408;45.468;9.124;2023-05-29T08:57:39;9.30;;;5.15;;
45694;SDS011;31408;45.468;9.124;2023-05-29T09:00:05;11.05;;;5.43;;
45694;SDS011;31408;45.468;9.124;2023-05-29T09:02:38;13.65;;;5.63;;
45694;SDS011;31408;45.468;9.124;2023-05-29T09:05:15;12.55;;;6.20;;
45694;SDS011;31408;45.468;9.124;2023-05-29T09:07:42;8.90;;;5.50;;
45694;SDS011;31408;45.468;9.124;2023-05-29T09:10:08;12.35;;;5.30;;
45694;SDS011;31408;45.468;9.124;2023-05-29T09:12:34;10.40;;;5.40;;
45694;SDS011;31408;45.468;9.124;2023-05-29T09:15:00;14.63;;;5.97;;
45694;SDS011;31408;45.468;9.124;2023-05-29T09:17:30;13.20;;;5.43;;
45694;SDS011;31408;45.468;9.124;2023-05-29T09:19:58;16.70;;;7.25;;
45694;SDS011;31408;45.468;9.124;2023-05-29T09:22:25;13.93;;;6.45;;
45694;SDS011;31408;45.468;9.124;2023-05-29T09:24:51;15.25;;;7.20;;
45694;SDS011;31408;45.468;9.124;2023-05-29T09:27:17;9.85;;;4.32;;
45694;SDS011;31408;45.468;9.124;2023-05-29T09:29:44;14.20;;;5.75;;
45694;SDS011;31408;45.468;9.124;2023-05-29T09:32:20;16.33;;;7.05;;
45694;SDS011;31408;45.468;9.124;2023-05-29T09:34:45;12.27;;;6.55;;
45694;SDS011;31408;45.468;9.124;2023-05-29T09:37:11;12.50;;;6.30;;
45694;SDS011;31408;45.468;9.124;2023-05-29T09:39:49;10.55;;;5.13;;
45694;SDS011;31408;45.468;9.124;2023-05-29T09:42:19;9.25;;;5.57;;
45694;SDS011;31408;45.468;9.124;2023-05-29T09:44:53;10.07;;;5.72;;
45694;SDS011;31408;45.468;9.124;2023-05-29T09:47:19;12.52;;;5.75;;
45694;SDS011;31408;45.468;9.124;2023-05-29T09:49:47;9.43;;;5.63;;
45694;SDS011;31408;45.468;9.124;2023-05-29T09:52:13;15.73;;;6.30;;
45694;SDS011;31408;45.468;9.124;2023-05-29T09:54:42;12.52;;;6.03;;
45694;SDS011;31408;45.468;9.124;2023-05-29T09:57:15;15.77;;;6.38;;
45694;SDS011;31408;45.468;9.124;2023-05-29T09:59:45;12.73;;;6.10;;
45694;SDS011;31408;45.468;9.124;2023-05-29T10:02:13;22.00;;;6.00;;
45694;SDS011;31408;45.468;9.124;2023-05-29T10:04:40;11.15;;;5.45;;
45694;SDS011;31408;45.468;9.124;2023-05-29T10:07:14;13.25;;;6.07;;
45694;SDS011;31408;45.468;9.124;2023-05-29T10:09:44;13.88;;;6.90;;
45694;SDS011;31408;45.468;9.124;2023-05-29T10:12:13;10.13;;;5.85;;
45694;SDS011;31408;45.468;9.124;2023-05-29T10:14:42;15.50;;;6.78;;
45694;SDS011;31408;45.468;9.124;2023-05-29T10:17:09;12.23;;;5.35;;
45694;SDS011;31408;45.468;9.124;2023-05-29T10:19:36;9.27;;;5.10;;
45694;SDS011;31408;45.468;9.124;2023-05-29T10:22:03;15.80;;;7.10;;
45694;SDS011;31408;45.468;9.124;2023-05-29T10:24:31;15.95;;;5.75;;
45694;SDS011;31408;45.468;9.124;2023-05-29T10:26:56;12.50;;;5.25;;
45694;SDS011;31408;45.468;9.124;2023-05-29T10:29:36;15.05;;;7.50;;
45694;SDS011;31408;45.468;9.124;2023-05-29T10:34:56;12.65;;;4.88;;
45694;SDS011;31408;45.468;9.124;2023-05-29T10:37:46;12.75;;;5.85;;
45694;SDS011;31408;45.468;9.124;2023-05-29T10:40:15;17.58;;;7.45;;
45694;SDS011;31408;45.468;9.124;2023-05-29T10:42:48;10.88;;;5.53;;
45694;SDS011;31408;45.468;9.124;2023-05-29T10:50:38;11.30;;;5.60;;
45694;SDS011;31408;45.468;9.124;2023-05-29T10:53:06;12.02;;;4.53;;
45694;SDS011;31408;45.468;9.124;2023-05-29T10:55:38;10.45;;;5.95;;
45694;SDS011;31408;45.468;9.124;2023-05-29T11:00:33;13.80;;;6.75;;
45694;SDS011;31408;45.468;9.124;2023-05-29T11:03:03;13.30;;;7.15;;
45694;SDS011;31408;45.468;9.124;2023-05-29T11:05:29;12.60;;;5.90;;
45694;SDS011;31408;45.468;9.124;2023-05-29T11:07:55;12.95;;;5.63;;
45694;SDS011;31408;45.468;9.124;2023-05-29T11:13:10;13.30;;;6.07;;
45694;SDS011;31408;45.468;9.124;2023-05-29T11:15:48;14.27;;;6.18;;
45694;SDS011;31408;45.468;9.124;2023-05-29T11:18:13;12.85;;;6.18;;
45694;SDS011;31408;45.468;9.124;2023-05-29T11:20:43;15.07;;;6.57;;
45694;SDS011;31408;45.468;9.124;2023-05-29T11:23:14;11.50;;;5.55;;
45694;SDS011;31408;45.468;9.124;2023-05-29T11:25:43;10.23;;;5.93;;
45694;SDS011;31408;45.468;9.124;2023-05-29T11:28:09;10.02;;;4.95;;
45694;SDS011;31408;45.468;9.124;2023-05-29T11:33:08;13.50;;;6.50;;
45694;SDS011;31408;45.468;9.124;2023-05-29T11:35:34;13.00;;;5.55;;
45694;SDS011;31408;45.468;9.124;2023-05-29T11:38:00;11.95;;;4.88;;
45694;SDS011;31408;45.468;9.124;2023-05-29T11:40:26;10.88;;;4.75;;
45694;SDS011;31408;45.468;9.124;2023-05-29T11:42:52;9.18;;;4.40;;
45694;SDS011;31408;45.468;9.124;2023-05-29T11:48:03;12.05;;;5.53;;
45694;SDS011;31408;45.468;9.124;2023-05-29T11:50:32;7.95;;;4.30;;
45694;SDS011;31408;45.468;9.124;2023-05-29T11:52:59;9.38;;;5.05;;
45694;SDS011;31408;45.468;9.124;2023-05-29T11:55:25;13.32;;;6.15;;
45694;SDS011;31408;45.468;9.124;2023-05-29T11:57:55;8.73;;;4.57;;
45694;SDS011;31408;45.468;9.124;2023-05-29T12:00:21;10.52;;;5.32;;
45694;SDS011;31408;45.468;9.124;2023-05-29T12:02:47;10.88;;;4.40;;
45694;SDS011;31408;45.468;9.124;2023-05-29T12:05:18;10.50;;;4.97;;
45694;SDS011;31408;45.468;9.124;2023-05-29T12:07:51;9.35;;;5.13;;
45694;SDS011;31408;45.468;9.124;2023-05-29T12:10:18;13.77;;;6.10;;
45694;SDS011;31408;45.468;9.124;2023-05-29T12:12:50;8.73;;;5.25;;
45694;SDS011;31408;45.468;9.124;2023-05-29T12:15:30;11.32;;;5.68;;
45694;SDS011;31408;45.468;9.124;2023-05-29T12:17:56;10.80;;;5.15;;
45694;SDS011;31408;45.468;9.124;2023-05-29T12:20:23;9.10;;;4.35;;
45694;SDS011;31408;45.468;9.124;2023-05-29T12:22:51;9.23;;;4.05;;
45694;SDS011;31408;45.468;9.124;2023-05-29T12:25:17;6.82;;;3.92;;
45694;SDS011;31408;45.468;9.124;2023-05-29T12:27:45;11.80;;;4.85;;
45694;SDS011;31408;45.468;9.124;2023-05-29T12:30:12;10.15;;;5.50;;
45694;SDS011;31408;45.468;9.124;2023-05-29T12:32:53;12.02;;;5.15;;
45694;SDS011;31408;45.468;9.124;2023-05-29T12:35:27;11.48;;;5.75;;
45694;SDS011;31408;45.468;9.124;2023-05-29T12:37:58;8.27;;;4.85;;
45694;SDS011;31408;45.468;9.124;2023-05-29T12:40:25;9.57;;;5.05;;
45694;SDS011;31408;45.468;9.124;2023-05-29T12:45:21;13.52;;;5.72;;
45694;SDS011;31408;45.468;9.124;2023-05-29T12:47:52;10.30;;;5.13;;
45694;SDS011;31408;45.468;9.124;2023-05-29T12:50:22;13.98;;;4.93;;
45694;SDS011;31408;45.468;9.124;2023-05-29T12:53:01;12.00;;;5.40;;
45694;SDS011;31408;45.468;9.124;2023-05-29T12:55:28;9.50;;;4.97;;
45694;SDS011;31408;45.468;9.124;2023-05-29T12:57:55;20.60;;;4.97;;
45694;SDS011;31408;45.468;9.124;2023-05-29T13:00:21;13.10;;;4.57;;
45694;SDS011;31408;45.468;9.124;2023-05-29T13:02:48;9.98;;;4.05;;
45694;SDS011;31408;45.468;9.124;2023-05-29T13:05:19;9.48;;;4.18;;
45694;SDS011;31408;45.468;9.124;2023-05-29T13:07:47;11.68;;;5.10;;
45694;SDS011;31408;45.468;9.124;2023-05-29T13:10:14;10.38;;;5.00;;
45694;SDS011;31408;45.468;9.124;2023-05-29T13:12:40;11.70;;;5.80;;
45694;SDS011;31408;45.468;9.124;2023-05-29T13:15:16;8.95;;;4.22;;
45694;SDS011;31408;45.468;9.124;2023-05-29T13:17:42;11.77;;;4.60;;
45694;SDS011;31408;45.468;9.124;2023-05-29T13:20:12;11.32;;;4.38;;
45694;SDS011;31408;45.468;9.124;2023-05-29T13:22:39;8.98;;;4.72;;
45694;SDS011;31408;45.468;9.124;2023-05-29T13:25:11;10.73;;;5.28;;
45694;SDS011;31408;45.468;9.124;2023-05-29T13:27:38;7.95;;;4.25;;
45694;SDS011;31408;45.468;9.124;2023-05-29T13:30:06;7.90;;;4.20;;
45694;SDS011;31408;45.468;9.124;2023-05-29T13:32:32;11.57;;;4.40;;
45694;SDS011;31408;45.468;9.124;2023-05-29T13:34:57;10.02;;;5.10;;
45694;SDS011;31408;45.468;9.124;2023-05-29T13:37:23;17.15;;;5.32;;
45694;SDS011;31408;45.468;9.124;2023-05-29T13:39:53;10.68;;;4.78;;
45694;SDS011;31408;45.468;9.124;2023-05-29T13:42:19;8.45;;;3.97;;
45694;SDS011;31408;45.468;9.124;2023-05-29T13:44:45;10.32;;;5.38;;
45694;SDS011;31408;45.468;9.124;2023-05-29T13:47:11;12.88;;;5.10;;
45694;SDS011;31408;45.468;9.124;2023-05-29T13:49:36;12.98;;;4.78;;
45694;SDS011;31408;45.468;9.124;2023-05-29T13:52:02;8.25;;;4.50;;
45694;SDS011;31408;45.468;9.124;2023-05-29T13:54:28;9.20;;;4.93;;
45694;SDS011;31408;45.468;9.124;2023-05-29T13:56:56;11.88;;;4.82;;
45694;SDS011;31408;45.468;9.124;2023-05-29T13:59:23;10.98;;;5.03;;
45694;SDS011;31408;45.468;9.124;2023-05-29T14:01:49;8.57;;;4.55;;
45694;SDS011;31408;45.468;9.124;2023-05-29T14:04:15;9.45;;;4.75;;
45694;SDS011;31408;45.468;9.124;2023-05-29T14:06:40;7.15;;;4.70;;
45694;SDS011;31408;45.468;9.124;2023-05-29T14:09:06;11.93;;;6.10;;
45694;SDS011;31408;45.468;9.124;2023-05-29T14:11:35;10.55;;;4.53;;
45694;SDS011;31408;45.468;9.124;2023-05-29T14:14:02;11.27;;;4.97;;
45694;SDS011;31408;45.468;9.124;2023-05-29T14:16:28;9.35;;;4.43;;
45694;SDS011;31408;45.468;9.124;2023-05-29T14:18:54;9.27;;;4.68;;
45694;SDS011;31408;45.468;9.124;2023-05-29T14:21:19;9.82;;;4.28;;
45694;SDS011;31408;45.468;9.124;2023-05-29T14:23:46;8.68;;;5.00;;
45694;SDS011;31408;45.468;9.124;2023-05-29T14:26:11;9.77;;;4.82;;
45694;SDS011;31408;45.468;9.124;2023-05-29T14:28:37;7.97;;;4.13;;
45694;SDS011;31408;45.468;9.124;2023-05-29T14:31:04;9.68;;;4.22;;
45694;SDS011;31408;45.468;9.124;2023-05-29T14:33:30;14.00;;;5.65;;
45694;SDS011;31408;45.468;9.124;2023-05-29T14:35:56;10.80;;;5.03;;
45694;SDS011;31408;45.468;9.124;2023-05-29T14:38:23;8.90;;;4.93;;
45694;SDS011;31408;45.468;9.124;2023-05-29T14:40:49;13.38;;;5.20;;
45694;SDS011;31408;45.468;9.124;2023-05-29T14:43:14;8.20;;;4.68;;
45694;SDS011;31408;45.468;9.124;2023-05-29T14:45:40;12.70;;;5.13;;
45694;SDS011;31408;45.468;9.124;2023-05-29T14:48:05;12.07;;;5.63;;
45694;SDS011;31408;45.468;9.124;2023-05-29T14:50:31;7.70;;;4.55;;
45694;SDS011;31408;45.468;9.124;2023-05-29T14:52:56;6.97;;;4.03;;
45694;SDS011;31408;45.468;9.124;2023-05-29T14:55:23;12.32;;;4.40;;
45694;SDS011;31408;45.468;9.124;2023-05-29T14:57:48;11.15;;;5.13;;
45694;SDS011;31408;45.468;9.124;2023-05-29T15:00:14;8.43;;;4.70;;
45694;SDS011;31408;45.468;9.124;2023-05-29T15:02:39;11.45;;;4.70;;
45694;SDS011;31408;45.468;9.124;2023-05-29T15:05:05;11.32;;;5.22;;
45694;SDS011;31408;45.468;9.124;2023-05-29T15:07:32;15.30;;;6.00;;
45694;SDS011;31408;45.468;9.124;2023-05-29T15:10:00;15.02;;;5.53;;
45694;SDS011;31408;45.468;9.124;2023-05-29T15:12:26;14.80;;;6.55;;
45694;SDS011;31408;45.468;9.124;2023-05-29T15:14:52;9.30;;;4.55;;